Terminal Aerodrome Forecast
Issued by NWS Portland, ME

Home | Current Version | Previous Version | Text Only | Print | Product List | Glossary On
Versions: 1 2 3 4 5 6 7 8 9 10 11 12 13 14 15 16 17 18 19
642
FTUS41 KGYX 102011 AAA
TAFPWM
TAF AMD
KPWM 102011Z 1020/1118 33009KT P6SM SCT250
     FM102200 29005KT P6SM SKC=

USA.gov is the U.S. government's official web portal to all federal, state and local government web resources and services.